createdAt,value
2018-02-13T00:00:08.892Z,100949.48
2018-02-13T00:02:37.994Z,100946.13
2018-02-13T00:05:07.113Z,100952.67
2018-02-13T00:07:36.266Z,100949.92
2018-02-13T00:10:05.401Z,100947.33
2018-02-13T00:12:35.266Z,100953.80
2018-02-13T00:15:04.412Z,100951.12
2018-02-13T00:17:33.482Z,100950.73
2018-02-13T00:20:02.578Z,100946.67
2018-02-13T00:22:48.314Z,100950.04
2018-02-13T00:25:18.186Z,100945.15
2018-02-13T00:27:47.278Z,100949.11
2018-02-13T00:30:16.371Z,100940.16
2018-02-13T00:32:45.497Z,100947.84
2018-02-13T00:35:14.589Z,100949.09
2018-02-13T00:37:43.702Z,100946.77
2018-02-13T00:40:12.785Z,100943.52
2018-02-13T00:42:41.905Z,100942.70
2018-02-13T00:45:11.777Z,100938.77
2018-02-13T00:47:40.867Z,100935.17
2018-02-13T00:50:09.983Z,100940.56
2018-02-13T00:52:39.104Z,100936.98
2018-02-13T00:55:08.973Z,100933.88
2018-02-13T00:57:38.093Z,100930.33
2018-02-13T01:00:07.216Z,100933.62
2018-02-13T01:02:37.081Z,100933.73
2018-02-13T01:05:06.199Z,100938.73
2018-02-13T01:07:35.288Z,100943.09
2018-02-13T01:10:04.404Z,100944.42
2018-02-13T01:12:33.507Z,100939.50
2018-02-13T01:15:02.626Z,100933.22
2018-02-13T01:17:31.734Z,100941.47
2018-02-13T01:20:00.842Z,100943.00
2018-02-13T01:22:29.952Z,100942.19
2018-02-13T01:24:59.061Z,100938.59
2018-02-13T01:27:28.146Z,100934.94
2018-02-13T01:29:57.266Z,100932.80
2018-02-13T01:32:26.381Z,100940.10
2018-02-13T01:34:55.491Z,100935.49
2018-02-13T01:37:24.588Z,100930.81
2018-02-13T01:39:53.697Z,100935.00
2018-02-13T01:42:23.153Z,100932.42
2018-02-13T01:44:52.240Z,100937.37
2018-02-13T01:47:22.856Z,100933.90
2018-02-13T01:49:51.950Z,100926.78
2018-02-13T01:52:21.057Z,100931.73
2018-02-13T01:54:50.162Z,100938.08
2018-02-13T01:57:19.279Z,100937.45
2018-02-13T01:59:48.358Z,100938.68
2018-02-13T02:02:21.107Z,100939.75
2018-02-13T02:04:50.209Z,100937.25
2018-02-13T02:07:19.337Z,100936.34
2018-02-13T02:09:48.425Z,100940.25
2018-02-13T02:12:17.558Z,100936.70
2018-02-13T02:14:47.406Z,100937.07
2018-02-13T02:17:16.536Z,100935.33
2018-02-13T02:19:45.633Z,100941.02
2018-02-13T02:22:14.725Z,100934.03
2018-02-13T02:24:43.852Z,100936.16
2018-02-13T02:27:13.712Z,100930.93
2018-02-13T02:29:42.818Z,100934.64
2018-02-13T02:32:11.921Z,100931.44
2018-02-13T02:34:41.029Z,100927.77
2018-02-13T02:37:10.131Z,100922.33
2018-02-13T02:39:40.024Z,100916.84
2018-02-13T02:42:09.123Z,100916.92
2018-02-13T02:44:38.226Z,100914.64
2018-02-13T02:47:07.315Z,100915.16
2018-02-13T02:49:36.417Z,100915.67
2018-02-13T02:52:05.529Z,100907.59
2018-02-13T02:54:35.407Z,100909.19
2018-02-13T02:57:04.514Z,100909.93
2018-02-13T02:59:33.598Z,100897.35
2018-02-13T03:04:40.279Z,100896.75
2018-02-13T03:07:09.396Z,100900.66
2018-02-13T03:09:40.007Z,100898.94
2018-02-13T03:12:09.152Z,100891.09
2018-02-13T03:14:39.010Z,100890.33
2018-02-13T03:17:08.135Z,100893.44
2018-02-13T03:19:37.274Z,100890.58
2018-02-13T03:22:07.160Z,100882.59
2018-02-13T03:24:36.259Z,100893.44
2018-02-13T03:27:05.341Z,100893.20
2018-02-13T03:29:35.225Z,100893.64
2018-02-13T03:32:04.338Z,100887.38
2018-02-13T03:34:33.570Z,100879.77
2018-02-13T03:37:04.562Z,100878.27
2018-02-13T03:39:33.685Z,100880.03
2018-02-13T03:42:02.793Z,100874.87
2018-02-13T03:44:31.909Z,100881.19
2018-02-13T03:47:01.774Z,100871.77
2018-02-13T03:49:30.890Z,100872.39
2018-02-13T03:51:59.987Z,100871.10
2018-02-13T03:54:29.120Z,100867.80
2018-02-13T03:56:58.969Z,100870.92
2018-02-13T03:59:28.071Z,100867.23
2018-02-13T04:01:57.180Z,100866.55
2018-02-13T04:04:26.294Z,100855.97
2018-02-13T04:06:55.417Z,100864.20
2018-02-13T04:09:24.526Z,100859.66
2018-02-13T04:11:53.637Z,100859.30
2018-02-13T04:14:22.729Z,100859.14
2018-02-13T04:16:51.845Z,100854.27
2018-02-13T04:19:20.925Z,100854.88
2018-02-13T04:21:50.038Z,100860.64
2018-02-13T04:24:19.132Z,100855.11
2018-02-13T04:26:48.253Z,100848.23
2018-02-13T04:29:17.381Z,100847.19
2018-02-13T04:31:47.256Z,100850.14
2018-02-13T04:34:16.353Z,100844.65
2018-02-13T04:36:45.474Z,100852.08
2018-02-13T04:39:15.349Z,100857.53
2018-02-13T04:41:44.479Z,100850.34
2018-02-13T04:44:13.559Z,100850.52
2018-02-13T04:46:42.675Z,100844.70
2018-02-13T04:49:12.553Z,100847.80
2018-02-13T04:51:41.646Z,100842.56
2018-02-13T04:54:10.782Z,100842.09
2018-02-13T04:56:39.864Z,100844.05
2018-02-13T04:59:09.767Z,100838.70
2018-02-13T05:01:38.874Z,100838.80
2018-02-13T05:04:08.001Z,100837.37
2018-02-13T05:06:38.526Z,100830.86
2018-02-13T05:09:08.402Z,100828.80
2018-02-13T05:11:37.501Z,100831.47
2018-02-13T05:14:06.606Z,100822.08
2018-02-13T05:16:37.221Z,100820.73
2018-02-13T05:19:06.333Z,100826.38
2018-02-13T05:21:35.460Z,100825.45
2018-02-13T05:24:05.308Z,100825.17
2018-02-13T05:26:34.398Z,100821.78
2018-02-13T05:29:03.510Z,100827.61
2018-02-13T05:31:32.613Z,100824.88
2018-02-13T05:34:01.745Z,100819.21
2018-02-13T05:36:31.634Z,100832.05
2018-02-13T05:39:00.734Z,100821.28
2018-02-13T05:41:29.820Z,100821.37
2018-02-13T05:43:58.939Z,100825.20
2018-02-13T05:46:28.027Z,100825.80
2018-02-13T05:48:57.145Z,100823.00
2018-02-13T05:51:27.009Z,100820.88
2018-02-13T05:53:56.103Z,100818.50
2018-02-13T05:56:26.007Z,100818.50
2018-02-13T05:58:55.122Z,100816.98
2018-02-13T06:01:24.221Z,100823.32
2018-02-13T06:03:53.321Z,100812.71
2018-02-13T06:06:22.421Z,100812.59
2018-02-13T06:08:52.583Z,100808.30
2018-02-13T06:11:22.451Z,100813.81
2018-02-13T06:13:51.544Z,100811.09
2018-02-13T06:16:20.681Z,100808.80
2018-02-13T06:18:50.554Z,100813.16
2018-02-13T06:21:19.670Z,100806.45
2018-02-13T06:23:48.774Z,100813.33
2018-02-13T06:26:18.645Z,100814.59
2018-02-13T06:28:47.741Z,100813.98
2018-02-13T06:31:16.867Z,100809.06
2018-02-13T06:33:45.969Z,100811.33
2018-02-13T06:36:15.069Z,100812.20
2018-02-13T06:38:44.965Z,100816.45
2018-02-13T06:41:14.046Z,100817.75
2018-02-13T06:43:43.162Z,100809.19
2018-02-13T06:46:12.274Z,100809.80
2018-02-13T06:48:42.158Z,100808.98
2018-02-13T06:51:11.260Z,100806.89
2018-02-13T06:53:40.379Z,100805.67
2018-02-13T06:56:09.481Z,100810.70
2018-02-13T06:58:39.339Z,100807.19
2018-02-13T07:01:08.431Z,100801.90
2018-02-13T07:03:37.534Z,100803.22
2018-02-13T07:06:06.644Z,100804.33
2018-02-13T07:08:35.741Z,100802.52
2018-02-13T07:11:04.845Z,100811.65
2018-02-13T07:13:33.958Z,100805.63
2018-02-13T07:16:03.069Z,100804.95
2018-02-13T07:18:32.956Z,100801.95
2018-02-13T07:21:02.076Z,100801.41
2018-02-13T07:23:31.182Z,100798.39
2018-02-13T07:26:01.053Z,100799.41
2018-02-13T07:28:30.153Z,100804.71
2018-02-13T07:30:59.262Z,100795.38
2018-02-13T07:33:28.358Z,100794.00
2018-02-13T07:35:57.505Z,100796.80
2018-02-13T07:38:27.336Z,100800.48
2018-02-13T07:40:56.450Z,100788.59
2018-02-13T07:43:25.549Z,100785.50
2018-02-13T07:45:54.650Z,100786.55
2018-02-13T07:48:23.766Z,100786.58
2018-02-13T07:50:52.860Z,100783.82
2018-02-13T07:53:21.962Z,100785.33
2018-02-13T07:55:51.818Z,100782.48
2018-02-13T07:58:20.930Z,100789.23
2018-02-13T08:00:50.034Z,100786.64
2018-02-13T08:03:19.129Z,100783.56
2018-02-13T08:05:48.266Z,100783.53
2018-02-13T08:08:17.344Z,100773.58
2018-02-13T08:10:46.477Z,100770.98
2018-02-13T08:13:15.596Z,100767.44
2018-02-13T08:15:44.708Z,100771.80
2018-02-13T08:18:13.825Z,100769.97
2018-02-13T08:20:42.920Z,100764.90
2018-02-13T08:23:12.033Z,100764.93
2018-02-13T08:25:41.920Z,100755.96
2018-02-13T08:28:11.063Z,100756.72
2018-02-13T08:30:40.929Z,100754.46
2018-02-13T08:33:10.027Z,100761.50
2018-02-13T08:35:39.117Z,100753.99
2018-02-13T08:38:08.213Z,100753.30
2018-02-13T08:40:37.327Z,100747.25
2018-02-13T08:43:06.409Z,100749.73
2018-02-13T08:45:35.531Z,100739.25
2018-02-13T08:48:04.631Z,100740.22
2018-02-13T08:50:34.514Z,100744.23
2018-02-13T08:53:03.606Z,100739.16
2018-02-13T08:55:32.716Z,100731.81
2018-02-13T08:58:01.824Z,100734.97
2018-02-13T09:00:30.906Z,100732.59
2018-02-13T09:03:00.863Z,100725.17
2018-02-13T09:05:30.721Z,100729.30
2018-02-13T09:07:59.813Z,100729.32
2018-02-13T09:10:28.937Z,100728.17
2018-02-13T09:12:58.069Z,100724.06
2018-02-13T09:15:27.178Z,100717.08
2018-02-13T09:17:56.254Z,100721.27
2018-02-13T09:20:25.417Z,100714.55
2018-02-13T09:22:54.461Z,100712.66
2018-02-13T09:25:23.585Z,100710.20
2018-02-13T09:27:52.661Z,100710.92
2018-02-13T09:30:21.813Z,100705.70
2018-02-13T09:32:50.926Z,100706.45
2018-02-13T09:35:20.777Z,100704.03
2018-02-13T09:37:49.895Z,100695.55
2018-02-13T09:40:18.966Z,100698.89
2018-02-13T09:42:48.112Z,100682.16
2018-02-13T09:45:17.233Z,100691.44
2018-02-13T09:47:46.318Z,100684.41
2018-02-13T09:50:15.405Z,100682.44
2018-02-13T09:52:45.296Z,100678.90
2018-02-13T09:55:14.402Z,100674.11
2018-02-13T09:57:43.513Z,100674.63
2018-02-13T10:00:13.384Z,100668.63
2018-02-13T10:02:42.519Z,100662.42
2018-02-13T10:05:11.591Z,100660.91
2018-02-13T10:07:40.735Z,100658.91
2018-02-13T10:10:10.596Z,100652.03
2018-02-13T10:12:39.691Z,100655.58
2018-02-13T10:15:08.794Z,100644.37
2018-02-13T10:17:37.907Z,100646.48
2018-02-13T10:20:07.010Z,100642.83
2018-02-13T10:22:36.146Z,100640.87
2018-02-13T10:25:05.296Z,100640.32
2018-02-13T10:27:34.435Z,100634.00
2018-02-13T10:30:03.533Z,100627.52
2018-02-13T10:32:33.407Z,100619.98
2018-02-13T10:35:02.508Z,100614.53
2018-02-13T10:37:31.653Z,100613.53
2018-02-13T10:40:00.757Z,100606.26
2018-02-13T10:42:30.646Z,100608.93
2018-02-13T10:44:59.761Z,100604.86
2018-02-13T10:47:28.868Z,100596.69
2018-02-13T10:49:57.982Z,100596.30
2018-02-13T10:52:27.094Z,100586.07
2018-02-13T10:54:56.984Z,100580.86
2018-02-13T10:57:26.660Z,100581.83
2018-02-13T10:59:55.760Z,100576.91
2018-02-13T11:02:24.898Z,100571.97
2018-02-13T11:04:54.038Z,100566.34
2018-02-13T11:07:23.124Z,100562.84
2018-02-13T11:09:52.269Z,100557.25
2018-02-13T11:12:22.105Z,100559.43
2018-02-13T11:14:51.231Z,100559.36
2018-02-13T11:17:21.086Z,100547.83
2018-02-13T11:19:50.226Z,100545.95
2018-02-13T11:22:19.330Z,100536.17
2018-02-13T11:24:49.203Z,100515.81
2018-02-13T11:27:18.291Z,100510.77
2018-02-13T11:29:47.413Z,100500.44
2018-02-13T11:32:16.495Z,100490.62
2018-02-13T11:34:45.595Z,100496.47
2018-02-13T11:37:14.723Z,100492.11
2018-02-13T11:39:43.806Z,100488.94
2018-02-13T11:42:12.906Z,100469.48
2018-02-13T11:44:42.020Z,100477.08
2018-02-13T11:47:11.867Z,100478.56
2018-02-13T11:49:40.998Z,100472.23
2018-02-13T11:52:10.078Z,100464.42
2018-02-13T11:54:39.218Z,100463.30
2018-02-13T11:57:08.307Z,100449.84
2018-02-13T11:59:37.420Z,100442.91
2018-02-13T12:02:06.508Z,100447.70
2018-02-13T12:04:35.626Z,100437.58
2018-02-13T12:07:05.496Z,100433.73
2018-02-13T12:09:34.594Z,100431.34
2018-02-13T12:12:03.702Z,100421.45
2018-02-13T12:14:32.799Z,100422.64
2018-02-13T12:17:01.886Z,100407.58
2018-02-13T12:19:30.996Z,100412.70
2018-02-13T12:22:00.099Z,100406.83
2018-02-13T12:24:29.197Z,100403.66
2018-02-13T12:26:59.076Z,100404.66
2018-02-13T12:29:28.189Z,100397.99
2018-02-13T12:31:57.295Z,100388.41
2018-02-13T12:34:26.406Z,100383.98
2018-02-13T12:36:55.503Z,100385.75
2018-02-13T12:39:25.386Z,100376.02
2018-02-13T12:41:54.482Z,100377.73
2018-02-13T12:44:23.590Z,100370.80
2018-02-13T12:46:52.690Z,100362.48
2018-02-13T12:49:22.571Z,100364.34
2018-02-13T12:51:51.657Z,100356.22
2018-02-13T12:54:20.780Z,100360.59
2018-02-13T12:56:49.879Z,100355.55
2018-02-13T12:59:18.983Z,100360.26
2018-02-13T13:01:48.142Z,100352.98
2018-02-13T13:04:17.969Z,100347.14
2018-02-13T13:06:47.112Z,100341.44
2018-02-13T13:09:16.981Z,100335.97
2018-02-13T13:11:46.085Z,100331.87
2018-02-13T13:14:15.192Z,100324.05
2018-02-13T13:16:44.286Z,100321.14
2018-02-13T13:19:13.395Z,100311.72
2018-02-13T13:21:43.297Z,100313.33
2018-02-13T13:24:12.393Z,100313.23
2018-02-13T13:26:41.506Z,100303.70
2018-02-13T13:29:10.598Z,100297.56
2018-02-13T13:31:40.449Z,100297.86
2018-02-13T13:34:09.558Z,100283.73
2018-02-13T13:36:38.711Z,100270.91
2018-02-13T13:39:07.774Z,100267.30
2018-02-13T13:41:36.866Z,100259.97
2018-02-13T13:44:05.971Z,100266.22
2018-02-13T13:46:35.113Z,100262.94
2018-02-13T13:49:04.231Z,100259.80
2018-02-13T13:51:33.324Z,100252.20
2018-02-13T13:54:02.421Z,100255.14
2018-02-13T13:56:32.840Z,100243.55
2018-02-13T13:59:01.956Z,100243.84
2018-02-13T14:01:31.061Z,100237.72
2018-02-13T14:04:00.149Z,100231.36
2018-02-13T14:06:29.262Z,100234.19
2018-02-13T14:08:58.341Z,100229.61
2018-02-13T14:11:27.459Z,100229.41
2018-02-13T14:13:56.584Z,100226.48
2018-02-13T14:16:26.446Z,100217.69
2018-02-13T14:18:55.566Z,100218.66
2018-02-13T14:21:24.676Z,100217.50
2018-02-13T14:23:54.552Z,100212.81
2018-02-13T14:26:24.470Z,100212.86
2018-02-13T14:28:53.622Z,100200.47
2018-02-13T14:31:22.702Z,100198.72
2018-02-13T14:33:52.589Z,100201.19
2018-02-13T14:36:21.697Z,100202.33
2018-02-13T14:38:50.816Z,100196.20
2018-02-13T14:41:20.713Z,100182.42
2018-02-13T14:43:49.807Z,100191.23
2018-02-13T14:46:18.901Z,100179.58
2018-02-13T14:48:48.013Z,100174.78
2018-02-13T14:51:17.893Z,100167.62
2018-02-13T14:53:47.016Z,100156.17
2018-02-13T14:56:16.870Z,100159.05
2018-02-13T14:58:45.985Z,100163.48
2018-02-13T15:01:15.896Z,100158.01
2018-02-13T15:03:45.026Z,100165.32
2018-02-13T15:06:15.622Z,100158.92
2018-02-13T15:08:44.750Z,100158.61
2018-02-13T15:11:13.868Z,100150.45
2018-02-13T15:13:43.010Z,100153.09
2018-02-13T15:16:12.122Z,100144.92
2018-02-13T15:18:43.203Z,100148.87
2018-02-13T15:21:12.293Z,100148.13
2018-02-13T15:23:42.223Z,100149.77
2018-02-13T15:26:12.079Z,100147.80
2018-02-13T15:28:41.227Z,100150.16
2018-02-13T15:31:10.379Z,100147.31
2018-02-13T15:33:40.230Z,100154.98
2018-02-13T15:36:10.105Z,100155.11
2018-02-13T15:38:39.974Z,100158.48
2018-02-13T15:41:09.846Z,100156.66
2018-02-13T15:43:38.961Z,100153.06
2018-02-13T15:46:08.042Z,100161.55
2018-02-13T15:48:37.133Z,100159.01
2018-02-13T15:51:06.249Z,100160.86
2018-02-13T15:53:35.339Z,100164.55
2018-02-13T15:56:05.007Z,100165.84
2018-02-13T15:58:34.164Z,100168.20
2018-02-13T16:01:03.227Z,100168.44
2018-02-13T16:03:32.317Z,100169.72
2018-02-13T16:06:02.151Z,100161.41
2018-02-13T16:08:31.254Z,100171.00
2018-02-13T16:11:00.369Z,100176.05
2018-02-13T16:13:29.482Z,100170.75
2018-02-13T16:15:59.347Z,100167.46
2018-02-13T16:18:28.437Z,100165.71
2018-02-13T16:20:57.554Z,100167.16
2018-02-13T16:23:26.649Z,100162.53
2018-02-13T16:25:56.555Z,100159.77
2018-02-13T16:28:27.260Z,100166.94
2018-02-13T16:30:56.347Z,100170.39
2018-02-13T16:33:25.459Z,100160.17
2018-02-13T16:35:54.573Z,100163.27
2018-02-13T16:38:23.714Z,100161.44
2018-02-13T16:40:52.821Z,100163.11
2018-02-13T16:43:22.710Z,100164.62
2018-02-13T16:45:52.592Z,100170.55
2018-02-13T16:48:21.703Z,100167.70
2018-02-13T16:50:50.820Z,100163.44
2018-02-13T16:53:19.920Z,100162.53
2018-02-13T16:55:49.789Z,100171.20
2018-02-13T16:58:18.910Z,100164.42
2018-02-13T17:00:48.017Z,100170.16
2018-02-13T17:03:17.141Z,100165.22
2018-02-13T17:05:46.329Z,100168.38
2018-02-13T17:08:16.164Z,100168.42
2018-02-13T17:10:45.285Z,100170.54
2018-02-13T17:13:14.381Z,100169.94
2018-02-13T17:15:43.482Z,100172.91
2018-02-13T17:18:12.629Z,100176.34
2018-02-13T17:20:42.489Z,100179.22
2018-02-13T17:23:11.626Z,100183.77
2018-02-13T17:25:41.483Z,100188.55
2018-02-13T17:28:11.360Z,100187.97
2018-02-13T17:30:40.505Z,100190.70
2018-02-13T17:33:09.629Z,100192.75
2018-02-13T17:35:38.748Z,100195.14
2018-02-13T17:38:07.864Z,100197.95
2018-02-13T17:40:36.999Z,100192.88
2018-02-13T17:43:06.237Z,100197.48
2018-02-13T17:45:35.359Z,100195.77
2018-02-13T17:48:04.444Z,100191.52
2018-02-13T17:50:33.546Z,100193.05
2018-02-13T17:53:02.688Z,100199.10
2018-02-13T17:55:31.774Z,100201.58
2018-02-13T17:58:00.869Z,100201.74
2018-02-13T18:00:29.980Z,100204.53
2018-02-13T18:02:59.095Z,100199.17
2018-02-13T18:05:28.209Z,100208.77
2018-02-13T18:07:58.111Z,100207.02
2018-02-13T18:10:27.218Z,100213.23
2018-02-13T18:12:56.364Z,100212.33
2018-02-13T18:15:26.254Z,100218.42
2018-02-13T18:17:55.371Z,100203.54
2018-02-13T18:20:25.278Z,100215.27
2018-02-13T18:22:54.389Z,100211.44
2018-02-13T18:25:23.507Z,100208.47
2018-02-13T18:27:52.629Z,100213.19
2018-02-13T18:30:22.500Z,100212.77
2018-02-13T18:32:51.633Z,100214.63
2018-02-13T18:35:21.517Z,100221.09
2018-02-13T18:37:50.642Z,100209.41
2018-02-13T18:40:20.517Z,100212.03
2018-02-13T18:42:49.649Z,100215.72
2018-02-13T18:45:19.546Z,100220.78
2018-02-13T18:47:48.694Z,100220.17
2018-02-13T18:50:17.823Z,100218.95
2018-02-13T18:55:16.087Z,100217.30
2018-02-13T18:57:45.177Z,100218.88
2018-02-13T19:00:14.343Z,100212.38
2018-02-13T19:02:43.447Z,100214.17
2018-02-13T19:05:13.319Z,100216.64
2018-02-13T19:07:42.434Z,100213.70
2018-02-13T19:10:12.351Z,100215.17
2018-02-13T19:12:41.469Z,100211.94
2018-02-13T19:15:11.355Z,100218.08
2018-02-13T19:17:40.465Z,100210.13
2018-02-13T19:20:10.352Z,100215.27
2018-02-13T19:22:39.483Z,100205.69
2018-02-13T19:25:09.373Z,100211.55
2018-02-13T19:27:38.472Z,100214.81
2018-02-13T19:30:07.602Z,100208.58
2018-02-13T19:32:37.514Z,100210.41
2018-02-13T19:35:07.396Z,100218.12
2018-02-13T19:37:36.525Z,100216.97
2018-02-13T19:40:05.652Z,100225.28
2018-02-13T19:42:34.792Z,100229.80
2018-02-13T19:45:03.907Z,100229.91
2018-02-13T19:47:33.791Z,100229.71
2018-02-13T19:50:02.930Z,100232.22
2018-02-13T19:52:32.797Z,100228.83
2018-02-13T19:55:01.950Z,100227.16
2018-02-13T19:57:31.054Z,100232.06
2018-02-13T20:00:00.211Z,100232.52
2018-02-13T20:02:29.296Z,100226.64
2018-02-13T20:04:58.451Z,100232.81
2018-02-13T20:07:27.819Z,100233.78
2018-02-13T20:09:57.727Z,100236.94
2018-02-13T20:12:26.828Z,100230.28
2018-02-13T20:14:56.722Z,100233.16
2018-02-13T20:17:25.849Z,100241.25
2018-02-13T20:19:55.745Z,100239.52
2018-02-13T20:22:24.858Z,100238.06
2018-02-13T20:24:54.739Z,100236.41
2018-02-13T20:27:23.866Z,100239.91
2018-02-13T20:29:53.734Z,100235.89
2018-02-13T20:32:22.899Z,100239.17
2018-02-13T20:34:52.012Z,100236.55
2018-02-13T20:37:21.180Z,100243.56
2018-02-13T20:39:51.059Z,100240.42
2018-02-13T20:42:20.168Z,100248.22
2018-02-13T20:44:50.067Z,100246.02
2018-02-13T20:47:19.235Z,100257.95
2018-02-13T20:49:48.343Z,100261.03
2018-02-13T20:52:17.491Z,100263.91
2018-02-13T20:54:46.643Z,100274.38
2018-02-13T20:57:15.799Z,100268.13
2018-02-13T20:59:44.905Z,100264.83
2018-02-13T21:02:14.049Z,100264.09
2018-02-13T21:04:43.191Z,100265.33
2018-02-13T21:07:12.309Z,100273.39
2018-02-13T21:09:41.457Z,100273.61
2018-02-13T21:12:10.558Z,100273.71
2018-02-13T21:14:39.686Z,100273.99
2018-02-13T21:17:08.783Z,100279.82
2018-02-13T21:19:37.921Z,100274.05
2018-02-13T21:22:07.041Z,100279.78
2018-02-13T21:24:37.236Z,100282.04
2018-02-13T21:27:06.687Z,100276.13
2018-02-13T21:29:35.805Z,100276.39
2018-02-13T21:32:04.941Z,100279.28
2018-02-13T21:34:34.059Z,100274.98
2018-02-13T21:37:03.986Z,100276.39
2018-02-13T21:39:33.114Z,100276.67
2018-02-13T21:42:02.238Z,100277.77
2018-02-13T21:44:31.350Z,100274.58
2018-02-13T21:47:00.826Z,100283.02
2018-02-13T21:49:29.956Z,100281.59
2018-02-13T21:51:59.830Z,100281.45
2018-02-13T21:54:28.988Z,100282.30
2018-02-13T21:56:58.858Z,100287.06
2018-02-13T21:59:27.966Z,100286.70
2018-02-13T22:01:57.075Z,100287.89
2018-02-13T22:04:26.166Z,100280.39
2018-02-13T22:06:55.298Z,100288.65
2018-02-13T22:09:24.395Z,100287.87
2018-02-13T22:11:53.499Z,100292.89
2018-02-13T22:14:22.582Z,100297.40
2018-02-13T22:16:51.700Z,100288.01
2018-02-13T22:19:21.567Z,100291.63
2018-02-13T22:21:51.442Z,100300.92
2018-02-13T22:24:20.553Z,100302.13
2018-02-13T22:26:49.696Z,100305.58
2018-02-13T22:29:18.794Z,100303.67
2018-02-13T22:31:48.690Z,100302.88
2018-02-13T22:36:53.117Z,100305.88
2018-02-13T22:39:22.216Z,100299.48
2018-02-13T22:41:52.091Z,100312.03
2018-02-13T22:44:21.227Z,100310.97
2018-02-13T22:46:50.335Z,100319.52
2018-02-13T22:49:19.487Z,100313.69
2018-02-13T22:51:48.599Z,100315.37
2018-02-13T22:54:17.722Z,100316.13
2018-02-13T22:56:47.590Z,100312.08
2018-02-13T22:59:16.719Z,100315.98
2018-02-13T23:01:46.611Z,100310.20
2018-02-13T23:04:15.732Z,100313.27
2018-02-13T23:06:45.612Z,100309.27
2018-02-13T23:09:14.728Z,100310.25
2018-02-13T23:11:43.850Z,100310.61
2018-02-13T23:14:13.732Z,100313.00
2018-02-13T23:16:44.356Z,100317.20
2018-02-13T23:19:13.551Z,100319.91
2018-02-13T23:21:43.433Z,100322.68
2018-02-13T23:24:12.546Z,100328.63
2018-02-13T23:26:41.681Z,100328.44
2018-02-13T23:29:11.573Z,100331.09
2018-02-13T23:31:40.678Z,100325.77
2018-02-13T23:34:09.799Z,100331.59
2018-02-13T23:36:39.679Z,100321.05
2018-02-13T23:39:08.796Z,100332.07
2018-02-13T23:41:37.911Z,100327.95
2018-02-13T23:44:08.642Z,100331.51
2018-02-13T23:46:39.592Z,100330.23
2018-02-13T23:49:08.727Z,100330.52
2018-02-13T23:51:37.839Z,100333.62
2018-02-13T23:54:06.931Z,100333.09
2018-02-13T23:56:36.050Z,100344.45
2018-02-13T23:59:05.173Z,100340.97
